sensor_id;sensor_type;location;lat;lon;timestamp;temperature;humidity
71563;DHT22;59391;52.504;13.438;2023-02-01T00:00:29;6.40;73.10
71563;DHT22;59391;52.504;13.438;2023-02-01T00:02:55;6.40;75.40
71563;DHT22;59391;52.504;13.438;2023-02-01T00:05:20;6.40;73.70
71563;DHT22;59391;52.504;13.438;2023-02-01T00:07:49;6.40;72.40
71563;DHT22;59391;52.504;13.438;2023-02-01T00:10:15;6.50;75.20
71563;DHT22;59391;52.504;13.438;2023-02-01T00:12:41;6.40;72.00
71563;DHT22;59391;52.504;13.438;2023-02-01T00:15:07;6.40;73.60
71563;DHT22;59391;52.504;13.438;2023-02-01T00:17:33;6.50;72.60
71563;DHT22;59391;52.504;13.438;2023-02-01T00:19:59;6.50;73.30
71563;DHT22;59391;52.504;13.438;2023-02-01T00:22:24;6.50;74.10
71563;DHT22;59391;52.504;13.438;2023-02-01T00:24:50;6.40;71.40
71563;DHT22;59391;52.504;13.438;2023-02-01T00:27:16;6.50;76.00
71563;DHT22;59391;52.504;13.438;2023-02-01T00:29:45;6.50;73.60
71563;DHT22;59391;52.504;13.438;2023-02-01T00:32:13;6.50;71.80
71563;DHT22;59391;52.504;13.438;2023-02-01T00:34:39;6.50;72.40
71563;DHT22;59391;52.504;13.438;2023-02-01T00:37:05;6.50;72.50
71563;DHT22;59391;52.504;13.438;2023-02-01T00:39:31;6.50;75.70
71563;DHT22;59391;52.504;13.438;2023-02-01T00:41:57;6.50;72.00
71563;DHT22;59391;52.504;13.438;2023-02-01T00:44:22;6.60;74.70
71563;DHT22;59391;52.504;13.438;2023-02-01T00:46:48;6.60;73.00
71563;DHT22;59391;52.504;13.438;2023-02-01T00:49:14;6.60;72.60
71563;DHT22;59391;52.504;13.438;2023-02-01T00:51:39;6.60;70.00
71563;DHT22;59391;52.504;13.438;2023-02-01T00:54:05;6.50;72.30
71563;DHT22;59391;52.504;13.438;2023-02-01T00:56:30;6.60;72.90
71563;DHT22;59391;52.504;13.438;2023-02-01T00:58:56;6.60;70.70
71563;DHT22;59391;52.504;13.438;2023-02-01T01:01:24;6.60;69.60
71563;DHT22;59391;52.504;13.438;2023-02-01T01:03:54;6.60;72.20
71563;DHT22;59391;52.504;13.438;2023-02-01T01:06:25;6.50;73.00
71563;DHT22;59391;52.504;13.438;2023-02-01T01:08:54;6.50;68.80
71563;DHT22;59391;52.504;13.438;2023-02-01T01:11:27;6.50;70.40
71563;DHT22;59391;52.504;13.438;2023-02-01T01:13:56;6.40;70.50
71563;DHT22;59391;52.504;13.438;2023-02-01T01:16:24;6.40;70.60
71563;DHT22;59391;52.504;13.438;2023-02-01T01:18:51;6.40;70.50
71563;DHT22;59391;52.504;13.438;2023-02-01T01:21:18;6.40;73.40
71563;DHT22;59391;52.504;13.438;2023-02-01T01:23:45;6.40;72.70
71563;DHT22;59391;52.504;13.438;2023-02-01T01:26:17;6.40;73.20
71563;DHT22;59391;52.504;13.438;2023-02-01T01:28:45;6.40;72.70
71563;DHT22;59391;52.504;13.438;2023-02-01T01:31:13;6.40;70.00
71563;DHT22;59391;52.504;13.438;2023-02-01T01:33:40;6.30;71.80
71563;DHT22;59391;52.504;13.438;2023-02-01T01:36:07;6.30;72.80
71563;DHT22;59391;52.504;13.438;2023-02-01T01:38:40;6.30;69.80
71563;DHT22;59391;52.504;13.438;2023-02-01T01:41:08;6.30;71.60
71563;DHT22;59391;52.504;13.438;2023-02-01T01:44:00;6.30;72.90
71563;DHT22;59391;52.504;13.438;2023-02-01T01:46:38;6.30;71.60
71563;DHT22;59391;52.504;13.438;2023-02-01T01:49:19;6.30;71.10
71563;DHT22;59391;52.504;13.438;2023-02-01T01:51:56;6.30;71.20
71563;DHT22;59391;52.504;13.438;2023-02-01T01:54:33;6.30;73.30
71563;DHT22;59391;52.504;13.438;2023-02-01T01:57:06;6.30;71.50
71563;DHT22;59391;52.504;13.438;2023-02-01T01:59:37;6.30;70.20
71563;DHT22;59391;52.504;13.438;2023-02-01T02:02:05;6.30;70.50
71563;DHT22;59391;52.504;13.438;2023-02-01T02:04:32;6.30;70.50
71563;DHT22;59391;52.504;13.438;2023-02-01T02:07:08;6.30;71.00
71563;DHT22;59391;52.504;13.438;2023-02-01T02:09:37;6.30;70.90
71563;DHT22;59391;52.504;13.438;2023-02-01T02:12:03;6.40;73.30
71563;DHT22;59391;52.504;13.438;2023-02-01T02:14:29;6.40;74.10
71563;DHT22;59391;52.504;13.438;2023-02-01T02:20:35;6.40;69.00
71563;DHT22;59391;52.504;13.438;2023-02-01T02:26:34;6.40;69.00
71563;DHT22;59391;52.504;13.438;2023-02-01T02:29:45;6.40;71.80
71563;DHT22;59391;52.504;13.438;2023-02-01T02:36:36;6.50;73.40
71563;DHT22;59391;52.504;13.438;2023-02-01T02:48:19;6.50;69.30
71563;DHT22;59391;52.504;13.438;2023-02-01T02:51:03;6.50;68.70
71563;DHT22;59391;52.504;13.438;2023-02-01T02:54:13;6.50;70.70
71563;DHT22;59391;52.504;13.438;2023-02-01T02:57:04;6.40;67.00
71563;DHT22;59391;52.504;13.438;2023-02-01T02:59:52;6.40;71.80
71563;DHT22;59391;52.504;13.438;2023-02-01T03:02:39;6.50;68.70
71563;DHT22;59391;52.504;13.438;2023-02-01T03:05:35;6.50;70.10
71563;DHT22;59391;52.504;13.438;2023-02-01T03:08:16;6.50;69.40
71563;DHT22;59391;52.504;13.438;2023-02-01T03:11:00;6.50;71.10
71563;DHT22;59391;52.504;13.438;2023-02-01T03:16:15;6.50;71.00
71563;DHT22;59391;52.504;13.438;2023-02-01T03:19:19;6.60;74.30
71563;DHT22;59391;52.504;13.438;2023-02-01T03:22:11;6.50;68.30
71563;DHT22;59391;52.504;13.438;2023-02-01T03:24:50;6.60;71.50
71563;DHT22;59391;52.504;13.438;2023-02-01T03:27:29;6.50;70.90
71563;DHT22;59391;52.504;13.438;2023-02-01T03:32:44;6.60;69.90
71563;DHT22;59391;52.504;13.438;2023-02-01T03:35:54;6.60;69.80
71563;DHT22;59391;52.504;13.438;2023-02-01T03:38:55;6.60;71.60
71563;DHT22;59391;52.504;13.438;2023-02-01T03:41:47;6.60;68.00
71563;DHT22;59391;52.504;13.438;2023-02-01T03:44:22;6.60;69.80
71563;DHT22;59391;52.504;13.438;2023-02-01T03:46:54;6.60;67.90
71563;DHT22;59391;52.504;13.438;2023-02-01T03:49:27;6.60;70.60
71563;DHT22;59391;52.504;13.438;2023-02-01T03:51:58;6.60;69.50
71563;DHT22;59391;52.504;13.438;2023-02-01T03:54:27;6.60;68.20
71563;DHT22;59391;52.504;13.438;2023-02-01T03:56:56;6.60;71.20
71563;DHT22;59391;52.504;13.438;2023-02-01T03:59:24;6.60;68.50
71563;DHT22;59391;52.504;13.438;2023-02-01T04:01:50;6.60;69.20
71563;DHT22;59391;52.504;13.438;2023-02-01T04:04:16;6.70;68.70
71563;DHT22;59391;52.504;13.438;2023-02-01T04:06:46;6.70;69.00
71563;DHT22;59391;52.504;13.438;2023-02-01T04:09:13;6.70;70.90
71563;DHT22;59391;52.504;13.438;2023-02-01T04:11:39;6.70;69.60
71563;DHT22;59391;52.504;13.438;2023-02-01T04:14:04;6.70;71.40
71563;DHT22;59391;52.504;13.438;2023-02-01T04:16:31;6.80;72.70
71563;DHT22;59391;52.504;13.438;2023-02-01T04:18:58;6.80;69.00
71563;DHT22;59391;52.504;13.438;2023-02-01T04:21:25;6.80;67.40
71563;DHT22;59391;52.504;13.438;2023-02-01T04:23:51;6.80;67.60
71563;DHT22;59391;52.504;13.438;2023-02-01T04:26:18;6.80;70.50
71563;DHT22;59391;52.504;13.438;2023-02-01T04:28:45;6.90;72.00
71563;DHT22;59391;52.504;13.438;2023-02-01T04:31:15;6.90;68.60
71563;DHT22;59391;52.504;13.438;2023-02-01T04:33:42;6.90;70.60
71563;DHT22;59391;52.504;13.438;2023-02-01T04:36:09;6.90;70.70
71563;DHT22;59391;52.504;13.438;2023-02-01T04:38:38;7.00;69.50
71563;DHT22;59391;52.504;13.438;2023-02-01T04:41:04;7.00;68.90
71563;DHT22;59391;52.504;13.438;2023-02-01T04:43:29;7.00;68.40
71563;DHT22;59391;52.504;13.438;2023-02-01T04:45:55;7.00;68.30
71563;DHT22;59391;52.504;13.438;2023-02-01T04:48:21;7.10;70.40
71563;DHT22;59391;52.504;13.438;2023-02-01T04:50:48;7.10;71.80
71563;DHT22;59391;52.504;13.438;2023-02-01T04:53:14;7.10;71.60
71563;DHT22;59391;52.504;13.438;2023-02-01T04:55:44;7.10;70.10
71563;DHT22;59391;52.504;13.438;2023-02-01T04:58:10;7.10;69.40
71563;DHT22;59391;52.504;13.438;2023-02-01T05:00:37;7.10;66.00
71563;DHT22;59391;52.504;13.438;2023-02-01T05:03:03;7.20;67.70
71563;DHT22;59391;52.504;13.438;2023-02-01T05:05:29;7.20;71.10
71563;DHT22;59391;52.504;13.438;2023-02-01T05:07:55;7.20;66.00
71563;DHT22;59391;52.504;13.438;2023-02-01T05:10:21;7.30;71.50
71563;DHT22;59391;52.504;13.438;2023-02-01T05:12:47;7.30;70.00
71563;DHT22;59391;52.504;13.438;2023-02-01T05:15:31;7.30;69.90
71563;DHT22;59391;52.504;13.438;2023-02-01T05:17:57;7.30;68.20
71563;DHT22;59391;52.504;13.438;2023-02-01T05:20:24;7.30;66.60
71563;DHT22;59391;52.504;13.438;2023-02-01T05:22:50;7.30;70.90
71563;DHT22;59391;52.504;13.438;2023-02-01T05:25:16;7.40;66.50
71563;DHT22;59391;52.504;13.438;2023-02-01T05:27:42;7.40;66.70
71563;DHT22;59391;52.504;13.438;2023-02-01T05:30:08;7.40;70.70
71563;DHT22;59391;52.504;13.438;2023-02-01T05:32:34;7.40;67.20
71563;DHT22;59391;52.504;13.438;2023-02-01T05:35:00;7.40;69.60
71563;DHT22;59391;52.504;13.438;2023-02-01T05:37:26;7.40;67.80
71563;DHT22;59391;52.504;13.438;2023-02-01T05:39:52;7.40;69.00
71563;DHT22;59391;52.504;13.438;2023-02-01T05:42:18;7.50;69.40
71563;DHT22;59391;52.504;13.438;2023-02-01T05:44:44;7.50;64.90
71563;DHT22;59391;52.504;13.438;2023-02-01T05:47:13;7.50;64.60
71563;DHT22;59391;52.504;13.438;2023-02-01T05:50:40;7.50;67.40
71563;DHT22;59391;52.504;13.438;2023-02-01T05:54:29;7.50;68.10
71563;DHT22;59391;52.504;13.438;2023-02-01T05:57:16;7.50;65.20
71563;DHT22;59391;52.504;13.438;2023-02-01T05:59:42;7.50;69.90
71563;DHT22;59391;52.504;13.438;2023-02-01T06:02:10;7.50;69.80
71563;DHT22;59391;52.504;13.438;2023-02-01T06:04:42;7.50;70.10
71563;DHT22;59391;52.504;13.438;2023-02-01T06:07:14;7.50;65.50
71563;DHT22;59391;52.504;13.438;2023-02-01T06:09:42;7.50;68.80
71563;DHT22;59391;52.504;13.438;2023-02-01T06:12:14;7.50;70.00
71563;DHT22;59391;52.504;13.438;2023-02-01T06:15:03;7.50;69.30
71563;DHT22;59391;52.504;13.438;2023-02-01T06:17:29;7.50;65.30
71563;DHT22;59391;52.504;13.438;2023-02-01T06:19:55;7.50;66.60
71563;DHT22;59391;52.504;13.438;2023-02-01T06:22:25;7.50;66.10
71563;DHT22;59391;52.504;13.438;2023-02-01T06:24:54;7.50;69.50
71563;DHT22;59391;52.504;13.438;2023-02-01T06:27:20;7.50;67.40
71563;DHT22;59391;52.504;13.438;2023-02-01T06:29:45;7.40;66.30
71563;DHT22;59391;52.504;13.438;2023-02-01T06:32:11;7.40;66.80
71563;DHT22;59391;52.504;13.438;2023-02-01T06:34:37;7.40;69.60
71563;DHT22;59391;52.504;13.438;2023-02-01T06:37:12;7.30;66.10
71563;DHT22;59391;52.504;13.438;2023-02-01T06:40:27;7.30;67.70
71563;DHT22;59391;52.504;13.438;2023-02-01T06:43:23;7.30;69.20
71563;DHT22;59391;52.504;13.438;2023-02-01T06:45:50;7.20;66.60
71563;DHT22;59391;52.504;13.438;2023-02-01T06:48:17;7.10;67.70
71563;DHT22;59391;52.504;13.438;2023-02-01T06:50:44;7.10;68.90
71563;DHT22;59391;52.504;13.438;2023-02-01T06:53:10;7.20;71.90
71563;DHT22;59391;52.504;13.438;2023-02-01T06:55:36;7.10;68.70
71563;DHT22;59391;52.504;13.438;2023-02-01T06:58:02;7.20;71.30
71563;DHT22;59391;52.504;13.438;2023-02-01T07:00:29;7.20;71.70
71563;DHT22;59391;52.504;13.438;2023-02-01T07:02:55;7.20;71.50
71563;DHT22;59391;52.504;13.438;2023-02-01T07:05:23;7.20;68.60
71563;DHT22;59391;52.504;13.438;2023-02-01T07:07:49;7.20;69.60
71563;DHT22;59391;52.504;13.438;2023-02-01T07:10:14;7.20;70.40
71563;DHT22;59391;52.504;13.438;2023-02-01T07:12:40;7.20;69.40
71563;DHT22;59391;52.504;13.438;2023-02-01T07:15:06;7.20;70.70
71563;DHT22;59391;52.504;13.438;2023-02-01T07:17:32;7.20;70.00
71563;DHT22;59391;52.504;13.438;2023-02-01T07:19:58;7.20;69.10
71563;DHT22;59391;52.504;13.438;2023-02-01T07:22:28;7.20;69.10
71563;DHT22;59391;52.504;13.438;2023-02-01T07:24:54;7.20;69.60
71563;DHT22;59391;52.504;13.438;2023-02-01T07:27:20;7.20;71.00
71563;DHT22;59391;52.504;13.438;2023-02-01T07:29:45;7.20;70.40
71563;DHT22;59391;52.504;13.438;2023-02-01T07:32:11;7.20;68.20
71563;DHT22;59391;52.504;13.438;2023-02-01T07:34:37;7.20;71.00
71563;DHT22;59391;52.504;13.438;2023-02-01T07:37:05;7.20;71.40
71563;DHT22;59391;52.504;13.438;2023-02-01T07:39:31;7.20;70.80
71563;DHT22;59391;52.504;13.438;2023-02-01T07:41:57;7.10;70.90
71563;DHT22;59391;52.504;13.438;2023-02-01T07:44:23;7.10;69.30
71563;DHT22;59391;52.504;13.438;2023-02-01T07:46:49;7.10;72.40
71563;DHT22;59391;52.504;13.438;2023-02-01T07:49:15;7.10;72.50
71563;DHT22;59391;52.504;13.438;2023-02-01T07:51:42;7.10;70.60
71563;DHT22;59391;52.504;13.438;2023-02-01T07:54:08;7.10;72.10
71563;DHT22;59391;52.504;13.438;2023-02-01T07:56:36;7.10;70.70
71563;DHT22;59391;52.504;13.438;2023-02-01T07:59:02;7.00;69.80
71563;DHT22;59391;52.504;13.438;2023-02-01T08:01:31;6.90;70.80
71563;DHT22;59391;52.504;13.438;2023-02-01T08:04:03;6.80;72.10
71563;DHT22;59391;52.504;13.438;2023-02-01T08:06:31;6.70;71.50
71563;DHT22;59391;52.504;13.438;2023-02-01T08:08:59;6.60;73.80
71563;DHT22;59391;52.504;13.438;2023-02-01T08:11:26;6.50;73.50
71563;DHT22;59391;52.504;13.438;2023-02-01T08:13:53;6.40;73.90
71563;DHT22;59391;52.504;13.438;2023-02-01T08:16:19;6.30;74.50
71563;DHT22;59391;52.504;13.438;2023-02-01T08:18:45;6.20;74.90
71563;DHT22;59391;52.504;13.438;2023-02-01T08:21:14;6.00;75.50
71563;DHT22;59391;52.504;13.438;2023-02-01T08:23:42;5.90;75.50
71563;DHT22;59391;52.504;13.438;2023-02-01T08:28:52;5.80;76.10
71563;DHT22;59391;52.504;13.438;2023-02-01T08:31:21;5.70;76.60
71563;DHT22;59391;52.504;13.438;2023-02-01T08:33:51;5.70;77.60
71563;DHT22;59391;52.504;13.438;2023-02-01T08:36:23;5.60;77.40
71563;DHT22;59391;52.504;13.438;2023-02-01T08:38:49;5.60;78.40
71563;DHT22;59391;52.504;13.438;2023-02-01T08:41:18;5.60;78.20
71563;DHT22;59391;52.504;13.438;2023-02-01T08:43:46;5.60;78.30
71563;DHT22;59391;52.504;13.438;2023-02-01T08:46:15;5.60;78.30
71563;DHT22;59391;52.504;13.438;2023-02-01T08:48:42;5.60;79.10
71563;DHT22;59391;52.504;13.438;2023-02-01T08:51:10;5.60;79.50
71563;DHT22;59391;52.504;13.438;2023-02-01T08:53:37;5.50;79.90
71563;DHT22;59391;52.504;13.438;2023-02-01T08:56:05;5.50;79.60
71563;DHT22;59391;52.504;13.438;2023-02-01T08:58:32;5.50;79.20
71563;DHT22;59391;52.504;13.438;2023-02-01T09:01:06;5.50;79.30
71563;DHT22;59391;52.504;13.438;2023-02-01T09:03:33;5.50;78.90
71563;DHT22;59391;52.504;13.438;2023-02-01T09:06:10;5.50;78.50
71563;DHT22;59391;52.504;13.438;2023-02-01T09:08:39;5.50;79.30
71563;DHT22;59391;52.504;13.438;2023-02-01T09:11:11;5.50;79.20
71563;DHT22;59391;52.504;13.438;2023-02-01T09:13:39;5.50;79.50
71563;DHT22;59391;52.504;13.438;2023-02-01T09:16:05;5.50;79.30
71563;DHT22;59391;52.504;13.438;2023-02-01T09:18:31;5.50;79.10
71563;DHT22;59391;52.504;13.438;2023-02-01T09:20:56;5.50;79.40
71563;DHT22;59391;52.504;13.438;2023-02-01T09:23:22;5.50;79.00
71563;DHT22;59391;52.504;13.438;2023-02-01T09:25:48;5.50;78.00
71563;DHT22;59391;52.504;13.438;2023-02-01T09:28:17;5.50;79.60
71563;DHT22;59391;52.504;13.438;2023-02-01T09:30:43;5.60;80.50
71563;DHT22;59391;52.504;13.438;2023-02-01T09:33:08;5.50;78.30
71563;DHT22;59391;52.504;13.438;2023-02-01T09:35:34;5.50;79.50
71563;DHT22;59391;52.504;13.438;2023-02-01T09:38:00;5.60;79.70
71563;DHT22;59391;52.504;13.438;2023-02-01T09:40:25;5.60;79.90
71563;DHT22;59391;52.504;13.438;2023-02-01T09:43:11;5.70;79.50
71563;DHT22;59391;52.504;13.438;2023-02-01T09:46:20;5.70;80.80
71563;DHT22;59391;52.504;13.438;2023-02-01T09:48:57;5.80;80.80
71563;DHT22;59391;52.504;13.438;2023-02-01T09:51:32;5.80;78.80
71563;DHT22;59391;52.504;13.438;2023-02-01T09:54:11;5.80;79.30
71563;DHT22;59391;52.504;13.438;2023-02-01T09:56:54;5.80;78.60
71563;DHT22;59391;52.504;13.438;2023-02-01T10:02:36;5.80;78.40
71563;DHT22;59391;52.504;13.438;2023-02-01T10:05:05;5.90;76.80
71563;DHT22;59391;52.504;13.438;2023-02-01T10:08:00;5.90;77.80
71563;DHT22;59391;52.504;13.438;2023-02-01T10:10:48;5.90;77.00
71563;DHT22;59391;52.504;13.438;2023-02-01T10:13:18;5.90;78.10
71563;DHT22;59391;52.504;13.438;2023-02-01T10:16:02;5.90;75.60
71563;DHT22;59391;52.504;13.438;2023-02-01T10:27:22;5.80;77.90
71563;DHT22;59391;52.504;13.438;2023-02-01T10:30:00;5.80;78.90
71563;DHT22;59391;52.504;13.438;2023-02-01T10:32:35;5.80;77.00
71563;DHT22;59391;52.504;13.438;2023-02-01T10:35:14;5.80;78.70
71563;DHT22;59391;52.504;13.438;2023-02-01T10:37:43;5.80;77.70
71563;DHT22;59391;52.504;13.438;2023-02-01T10:40:24;5.80;76.80
71563;DHT22;59391;52.504;13.438;2023-02-01T10:42:59;5.80;77.90
71563;DHT22;59391;52.504;13.438;2023-02-01T10:45:29;5.90;77.40
71563;DHT22;59391;52.504;13.438;2023-02-01T10:47:57;5.90;78.80
71563;DHT22;59391;52.504;13.438;2023-02-01T10:50:37;6.00;79.20
71563;DHT22;59391;52.504;13.438;2023-02-01T10:53:15;6.00;77.50
71563;DHT22;59391;52.504;13.438;2023-02-01T10:58:19;6.00;78.50
71563;DHT22;59391;52.504;13.438;2023-02-01T11:03:53;6.00;77.80
71563;DHT22;59391;52.504;13.438;2023-02-01T11:06:40;6.00;77.80
71563;DHT22;59391;52.504;13.438;2023-02-01T11:14:35;5.90;78.00
71563;DHT22;59391;52.504;13.438;2023-02-01T11:19:59;6.00;79.40
71563;DHT22;59391;52.504;13.438;2023-02-01T11:22:27;6.10;82.00
71563;DHT22;59391;52.504;13.438;2023-02-01T11:24:55;6.20;80.80
71563;DHT22;59391;52.504;13.438;2023-02-01T11:27:23;6.20;80.40
71563;DHT22;59391;52.504;13.438;2023-02-01T11:29:53;6.20;79.20
71563;DHT22;59391;52.504;13.438;2023-02-01T11:32:24;6.30;78.90
71563;DHT22;59391;52.504;13.438;2023-02-01T11:34:57;6.30;80.50
71563;DHT22;59391;52.504;13.438;2023-02-01T11:37:33;6.40;79.70
71563;DHT22;59391;52.504;13.438;2023-02-01T11:43:08;6.60;81.70
71563;DHT22;59391;52.504;13.438;2023-02-01T11:45:40;6.70;77.70
71563;DHT22;59391;52.504;13.438;2023-02-01T11:48:16;6.80;79.10
71563;DHT22;59391;52.504;13.438;2023-02-01T11:51:08;6.90;77.50
71563;DHT22;59391;52.504;13.438;2023-02-01T11:56:52;7.00;76.70
71563;DHT22;59391;52.504;13.438;2023-02-01T11:59:46;7.10;77.30
71563;DHT22;59391;52.504;13.438;2023-02-01T12:03:06;7.20;77.50
71563;DHT22;59391;52.504;13.438;2023-02-01T12:12:04;7.50;77.40
71563;DHT22;59391;52.504;13.438;2023-02-01T12:20:57;7.90;75.40
71563;DHT22;59391;52.504;13.438;2023-02-01T12:24:25;7.90;70.40
71563;DHT22;59391;52.504;13.438;2023-02-01T12:30:41;8.00;74.50
71563;DHT22;59391;52.504;13.438;2023-02-01T12:33:30;8.00;72.10
71563;DHT22;59391;52.504;13.438;2023-02-01T12:36:27;8.00;71.10
71563;DHT22;59391;52.504;13.438;2023-02-01T12:39:16;8.00;69.90
71563;DHT22;59391;52.504;13.438;2023-02-01T12:42:00;8.10;75.60
71563;DHT22;59391;52.504;13.438;2023-02-01T12:44:52;8.10;74.80
71563;DHT22;59391;52.504;13.438;2023-02-01T12:52:49;8.00;72.40
71563;DHT22;59391;52.504;13.438;2023-02-01T12:55:24;8.00;69.70
71563;DHT22;59391;52.504;13.438;2023-02-01T12:58:24;8.00;71.30
71563;DHT22;59391;52.504;13.438;2023-02-01T13:01:07;8.00;71.10
71563;DHT22;59391;52.504;13.438;2023-02-01T13:07:16;8.00;73.20
71563;DHT22;59391;52.504;13.438;2023-02-01T13:09:53;8.10;73.00
71563;DHT22;59391;52.504;13.438;2023-02-01T13:12:28;8.10;70.10
71563;DHT22;59391;52.504;13.438;2023-02-01T13:15:23;8.10;67.70
71563;DHT22;59391;52.504;13.438;2023-02-01T13:17:59;8.10;70.40
71563;DHT22;59391;52.504;13.438;2023-02-01T13:21:04;8.10;68.60
71563;DHT22;59391;52.504;13.438;2023-02-01T13:23:38;8.10;69.40
71563;DHT22;59391;52.504;13.438;2023-02-01T13:26:08;8.00;67.10
71563;DHT22;59391;52.504;13.438;2023-02-01T13:28:46;8.00;67.00
71563;DHT22;59391;52.504;13.438;2023-02-01T13:37:51;8.10;66.50
71563;DHT22;59391;52.504;13.438;2023-02-01T13:43:59;8.10;67.50
71563;DHT22;59391;52.504;13.438;2023-02-01T13:54:43;8.20;68.30
71563;DHT22;59391;52.504;13.438;2023-02-01T13:57:36;8.20;66.90
71563;DHT22;59391;52.504;13.438;2023-02-01T14:00:35;8.20;70.00
71563;DHT22;59391;52.504;13.438;2023-02-01T14:03:53;8.20;67.70
71563;DHT22;59391;52.504;13.438;2023-02-01T14:09:35;8.20;69.30
71563;DHT22;59391;52.504;13.438;2023-02-01T14:15:30;8.30;67.60
71563;DHT22;59391;52.504;13.438;2023-02-01T14:21:29;8.30;68.40
71563;DHT22;59391;52.504;13.438;2023-02-01T14:27:23;8.10;69.50
71563;DHT22;59391;52.504;13.438;2023-02-01T14:30:11;8.00;71.10
71563;DHT22;59391;52.504;13.438;2023-02-01T14:36:12;7.80;71.30
71563;DHT22;59391;52.504;13.438;2023-02-01T14:38:48;7.70;72.00
71563;DHT22;59391;52.504;13.438;2023-02-01T14:41:33;7.70;71.60
71563;DHT22;59391;52.504;13.438;2023-02-01T14:47:26;7.60;70.70
71563;DHT22;59391;52.504;13.438;2023-02-01T14:58:55;7.70;71.50
71563;DHT22;59391;52.504;13.438;2023-02-01T15:02:18;7.80;71.60
71563;DHT22;59391;52.504;13.438;2023-02-01T15:05:40;7.80;70.00
71563;DHT22;59391;52.504;13.438;2023-02-01T15:11:21;7.80;70.40
71563;DHT22;59391;52.504;13.438;2023-02-01T15:13:51;7.90;68.40
71563;DHT22;59391;52.504;13.438;2023-02-01T15:16:35;7.80;68.40
71563;DHT22;59391;52.504;13.438;2023-02-01T15:19:34;7.80;68.70
71563;DHT22;59391;52.504;13.438;2023-02-01T15:22:36;7.70;69.20
71563;DHT22;59391;52.504;13.438;2023-02-01T15:25:28;7.60;68.70
71563;DHT22;59391;52.504;13.438;2023-02-01T15:28:00;7.60;69.10
71563;DHT22;59391;52.504;13.438;2023-02-01T15:30:31;7.40;69.70
71563;DHT22;59391;52.504;13.438;2023-02-01T15:33:07;7.30;70.70
71563;DHT22;59391;52.504;13.438;2023-02-01T15:35:51;7.10;71.00
71563;DHT22;59391;52.504;13.438;2023-02-01T15:49:32;6.40;72.70
71563;DHT22;59391;52.504;13.438;2023-02-01T15:52:08;6.20;71.60
71563;DHT22;59391;52.504;13.438;2023-02-01T15:55:08;6.10;73.60
71563;DHT22;59391;52.504;13.438;2023-02-01T15:57:45;5.90;74.10
71563;DHT22;59391;52.504;13.438;2023-02-01T16:00:30;5.80;74.40
71563;DHT22;59391;52.504;13.438;2023-02-01T16:03:03;5.60;75.10
71563;DHT22;59391;52.504;13.438;2023-02-01T16:08:13;5.40;76.20
71563;DHT22;59391;52.504;13.438;2023-02-01T16:10:44;5.30;76.30
71563;DHT22;59391;52.504;13.438;2023-02-01T16:13:11;5.30;76.40
71563;DHT22;59391;52.504;13.438;2023-02-01T16:15:39;5.20;76.60
71563;DHT22;59391;52.504;13.438;2023-02-01T16:18:06;5.10;76.60
71563;DHT22;59391;52.504;13.438;2023-02-01T16:20:35;5.10;76.80
71563;DHT22;59391;52.504;13.438;2023-02-01T16:23:03;5.00;76.50
71563;DHT22;59391;52.504;13.438;2023-02-01T16:25:29;4.90;76.80
71563;DHT22;59391;52.504;13.438;2023-02-01T16:27:55;4.80;76.90
71563;DHT22;59391;52.504;13.438;2023-02-01T16:30:21;4.70;76.90
71563;DHT22;59391;52.504;13.438;2023-02-01T16:32:52;4.70;76.90
71563;DHT22;59391;52.504;13.438;2023-02-01T16:35:31;4.60;78.20
71563;DHT22;59391;52.504;13.438;2023-02-01T16:38:02;4.50;77.30
71563;DHT22;59391;52.504;13.438;2023-02-01T16:40:33;4.50;77.90
71563;DHT22;59391;52.504;13.438;2023-02-01T16:43:00;4.50;78.10
71563;DHT22;59391;52.504;13.438;2023-02-01T16:45:26;4.50;78.30
71563;DHT22;59391;52.504;13.438;2023-02-01T16:47:54;4.40;78.40
71563;DHT22;59391;52.504;13.438;2023-02-01T16:50:23;4.40;78.30
71563;DHT22;59391;52.504;13.438;2023-02-01T16:52:51;4.40;78.70
71563;DHT22;59391;52.504;13.438;2023-02-01T16:55:19;4.40;78.50
71563;DHT22;59391;52.504;13.438;2023-02-01T16:57:50;4.40;79.20
71563;DHT22;59391;52.504;13.438;2023-02-01T17:00:16;4.40;79.20
71563;DHT22;59391;52.504;13.438;2023-02-01T17:02:42;4.40;79.50
71563;DHT22;59391;52.504;13.438;2023-02-01T17:05:09;4.40;78.90
71563;DHT22;59391;52.504;13.438;2023-02-01T17:07:36;4.50;79.70
71563;DHT22;59391;52.504;13.438;2023-02-01T17:10:04;4.50;79.40
71563;DHT22;59391;52.504;13.438;2023-02-01T17:12:32;4.50;79.30
71563;DHT22;59391;52.504;13.438;2023-02-01T17:14:58;4.50;79.00
71563;DHT22;59391;52.504;13.438;2023-02-01T17:17:33;4.50;79.10
71563;DHT22;59391;52.504;13.438;2023-02-01T17:20:03;4.50;79.50
71563;DHT22;59391;52.504;13.438;2023-02-01T17:22:29;4.60;79.60
71563;DHT22;59391;52.504;13.438;2023-02-01T17:24:55;4.60;79.30
71563;DHT22;59391;52.504;13.438;2023-02-01T17:27:21;4.60;79.50
71563;DHT22;59391;52.504;13.438;2023-02-01T17:29:46;4.60;79.60
71563;DHT22;59391;52.504;13.438;2023-02-01T17:32:19;4.70;80.20
71563;DHT22;59391;52.504;13.438;2023-02-01T17:34:50;4.70;79.00
71563;DHT22;59391;52.504;13.438;2023-02-01T17:37:27;4.70;78.60
71563;DHT22;59391;52.504;13.438;2023-02-01T17:39:55;4.70;80.10
71563;DHT22;59391;52.504;13.438;2023-02-01T17:42:22;4.70;78.90
71563;DHT22;59391;52.504;13.438;2023-02-01T17:44:51;4.80;78.90
71563;DHT22;59391;52.504;13.438;2023-02-01T17:47:21;4.90;79.80
71563;DHT22;59391;52.504;13.438;2023-02-01T17:49:46;4.90;79.50
71563;DHT22;59391;52.504;13.438;2023-02-01T17:52:17;4.90;79.00
71563;DHT22;59391;52.504;13.438;2023-02-01T17:55:15;5.00;79.30
71563;DHT22;59391;52.504;13.438;2023-02-01T17:57:47;5.00;79.30
71563;DHT22;59391;52.504;13.438;2023-02-01T18:00:15;5.00;78.60
71563;DHT22;59391;52.504;13.438;2023-02-01T18:02:42;5.10;78.20
71563;DHT22;59391;52.504;13.438;2023-02-01T18:05:18;5.10;78.80
71563;DHT22;59391;52.504;13.438;2023-02-01T18:07:53;5.20;78.10
71563;DHT22;59391;52.504;13.438;2023-02-01T18:10:19;5.20;77.40
71563;DHT22;59391;52.504;13.438;2023-02-01T18:12:45;5.20;77.60
71563;DHT22;59391;52.504;13.438;2023-02-01T18:15:22;5.30;78.90
71563;DHT22;59391;52.504;13.438;2023-02-01T18:17:51;5.30;78.00
71563;DHT22;59391;52.504;13.438;2023-02-01T18:20:22;5.40;79.00
71563;DHT22;59391;52.504;13.438;2023-02-01T18:22:49;5.40;78.70
71563;DHT22;59391;52.504;13.438;2023-02-01T18:25:21;5.40;77.90
71563;DHT22;59391;52.504;13.438;2023-02-01T18:27:50;5.40;77.60
71563;DHT22;59391;52.504;13.438;2023-02-01T18:30:19;5.50;77.50
71563;DHT22;59391;52.504;13.438;2023-02-01T18:32:46;5.50;76.60
71563;DHT22;59391;52.504;13.438;2023-02-01T18:35:20;5.60;79.00
71563;DHT22;59391;52.504;13.438;2023-02-01T18:37:48;5.50;77.50